This is the latest recevied weather packets stored in our database for station/object EA1GLE. If no packets are shown the sender has not sent any weather packets the latest 10 day(s).
| Time | Temp. | Humidity | Pressure | Rain* | Wind** | Luminosity | Snow |
|---|---|---|---|---|---|---|---|
| 1777480564 | 18.33° C | 70% | 1010.7 hPa | 0 mm | - | 311 W/m² | - |
| 1777478403 | 18.33° C | 74% | 1010.4 hPa | 0 mm | - | 336 W/m² | - |
| 1777478043 | 17.78° C | 77% | 1010.6 hPa | 0 mm | - | 362 W/m² | - |
| 1777472284 | 12.22° C | 98% | 1011.1 hPa | 4.06 mm | - | 276 W/m² | - |
| 1777471743 | 11.67° C | 98% | 1011.3 hPa | 5.59 mm | - | 39 W/m² | - |
| 1777470303 | 12.22° C | 96% | 1011.1 hPa | 4.06 mm | - | 21 W/m² | - |
| 1777469224 | 12.78° C | 94% | 1011.2 hPa | 2.79 mm | - | 9 W/m² | - |
| 1777460044 | 16.67° C | 82% | 1010.7 hPa | 0 mm | - | 547 W/m² | - |
| 1777458963 | 16.11° C | 83% | 1011 hPa | 0 mm | - | 300 W/m² | - |
| 1777457884 | 16.11° C | 84% | 1011.1 hPa | 0 mm | - | 638 W/m² | - |
| 1777456804 | 15.56° C | 87% | 1011 hPa | 0 mm | - | 116 W/m² | - |
| 1777452437 | 13.33° C | 99% | 1010.9 hPa | 0 mm | - | 194 W/m² | - |
| 1777451224 | 13.33° C | 99% | 1011.1 hPa | 0 mm | - | 209 W/m² | - |
| 1777448704 | 12.78° C | 99% | 1010.7 hPa | 1.27 mm | - | 85 W/m² | - |
| 1777447624 | 12.22° C | 99% | 1010.8 hPa | 2.54 mm | - | 61 W/m² | - |
| 1777445643 | 12.22° C | 99% | 1010.4 hPa | 2.03 mm | - | 24 W/m² | - |
| 1777438443 | 11.67° C | 99% | 1010.4 hPa | 1.78 mm | - | 0 W/m² | - |
| 1777435743 | 11.67° C | 99% | 1010.5 hPa | 1.02 mm | - | 0 W/m² | - |
| 1777434978 | 12.22° C | 99% | 1010.7 hPa | 0.76 mm | - | 0 W/m² | - |
| 1777431603 | 11.67° C | 99% | 1010.5 hPa | 0 mm | - | 0 W/m² | - |
| 1777430837 | 12.22° C | 99% | 1010.5 hPa | 0 mm | - | 0 W/m² | - |
| 1777428003 | 12.22° C | 99% | 1010.9 hPa | 0 mm | - | 0 W/m² | - |
| 1777427777 | 12.22° C | 99% | 1011 hPa | 0 mm | - | 0 W/m² | - |
| 1777427103 | 12.22° C | 99% | 1011.1 hPa | 0.25 mm | - | 0 W/m² | - |
| 1777422424 | 12.22° C | 99% | 1012.1 hPa | 0.51 mm | - | 0 W/m² | - |
* Rain latest hour (hover to see other rain measurements)
** Current wind speed in m/s (hover to see current wind gust speed)